Terminal Aerodrome Forecast
Issued by NWS

Home | Current Version | Previous Version | Text Only | Print | Product List | Glossary On
Versions: 1 2 3 4 5 6 7 8 9 10 11 12 13 14 15 16 17 18 19 20
000
FTUS46 KSEW 280500
TAFPAE
TAF
KPAE 280521Z 2806/0106 36010KT P6SM FEW080 FEW200
     FM280900 36010KT P6SM FEW200
     FM281200 36009KT P6SM SKC
     FM281800 35008KT P6SM SKC=

USA.gov is the U.S. government's official web portal to all federal, state and local government web resources and services.